Chennai, India
Current Conditions -  °F | °C
As of 4:40 AM on Sunday 21 Dec 2014 (Local Time) from VOMM Reporting Station
Haze Haze  
Wind Chill: 73°   Ceiling: Unl
Heat Index: 73°   Visibility: 3mi
Dew Point: 70°   Wind: 3mph
Humidity: 88%   Direction: 320°NW
Pressure: 29.83"   Gusts: NA
Location:  13.06°N, 80.25°E
Report Text: VOMM 202340Z 32003KT 5000 BR FEW020 SCT100 23/21 Q1010 NOSIG
Loading
Personal Weather Stations






























Interactive Weather Map New forecast layout! Learn more

10-Day Weather Forecast

Advertisements
Track Severe Weather on mobile